Flight Track Log - Related Links

Times and Time Zones

All times are in EDT time to prevent confusion due to time zone crossing. See the SWA2353 flight status page for this flight to view local times or setup timezone preferences in your user account.

Time Position Orientation Groundspeed Altitude Reporting Facility
EDT Latitude Longitude Course Direction KTS MPH feet Rate Location/Type
Thu 07:04:23 PM 39.8667 -75.2833 237° Southwest 164 189 800  Level Philadelphia TRACON
Thu 07:04:53 PM 39.8500 -75.3167 237° Southwest 185 213 1,700 2,000 Climbing Philadelphia TRACON
Thu 07:05:53 PM 39.8333 -75.4000 255° West 237 273 3,800 2,700 Climbing Philadelphia TRACON
Thu 07:06:53 PM 39.8667 -75.4833 298° West 303 349 7,100 3,235 Climbing Philadelphia TRACON
Thu 07:07:35 PM 39.9086 -75.4906 352° North 275 316 9,300 2,940 Climbing New York Center
Thu 07:08:33 PM 39.9972 -75.5128 349° North 361 415 12,000 1,373 Climbing New York Center
Thu 07:09:33 PM 40.0800 -75.5292 351° North 356 410 12,000 694 Level New York Center
Thu 07:10:34 PM 40.1811 -75.5553 349° North 344 396 13,400 2,262 Climbing New York Center
Thu 07:11:35 PM 40.2558 -75.6147 329° Northwest 351 404 16,600 1,785 Climbing New York Center
Thu 07:12:35 PM 40.3325 -75.7264 312° West 360 414 17,000 750 Climbing New York Center
Thu 07:13:35 PM 40.3992 -75.8264 311° West 372 428 18,100 1,850 Climbing New York Center
Thu 07:14:35 PM 40.4500 -75.9503 298° West 382 440 20,700 2,622 Climbing New York Center
Thu 07:15:34 PM 40.4706 -76.0964 281° West 390 449 23,300 2,450 Climbing New York Center
Thu 07:16:35 PM 40.4911 -76.2428 281° West 401 461 25,600 2,118 Climbing New York Center
Thu 07:17:33 PM 40.5150 -76.3975 282° West 416 479 27,500 1,983 Climbing New York Center
Thu 07:18:33 PM 40.5364 -76.5578 280° West 428 493 29,500 1,983 Climbing New York Center
Thu 07:19:34 PM 40.5619 -76.7156 282° West 440 506 31,500 1,918 Climbing New York Center
Thu 07:20:35 PM 40.5833 -76.8678 281° West 433 498 33,400 1,261 Climbing New York Center
Thu 07:21:33 PM 40.6064 -77.0256 281° West 433 498 34,000 303 Climbing New York Center
Thu 07:22:34 PM 40.6294 -77.1811 281° West 433 498 34,000  Level New York Center
Thu 07:24:23 PM 40.6661 -77.4433 281° West 438 504 34,000  Level Cleveland Center
Thu 07:25:23 PM 40.6869 -77.5956 280° West 433 498 34,000  Level Cleveland Center
Thu 07:26:23 PM 40.7075 -77.7481 280° West 428 493 34,000  Level Cleveland Center
Thu 07:27:23 PM 40.7278 -77.8981 280° West 428 493 34,000  Level Cleveland Center
Thu 07:28:23 PM 40.7478 -78.0506 280° West 428 493 34,000  Level Cleveland Center
Thu 07:29:23 PM 40.7678 -78.2061 280° West 428 493 34,000  Level Cleveland Center
Thu 07:30:23 PM 40.7897 -78.3589 281° West 428 493 34,000  Level Cleveland Center
Thu 07:31:23 PM 40.8092 -78.5119 280° West 428 493 34,000  Level Cleveland Center
Thu 07:32:23 PM 40.8286 -78.6678 279° West 428 493 34,000  Level Cleveland Center
Thu 07:33:23 PM 40.8478 -78.8236 279° West 428 493 34,000  Level Cleveland Center
Thu 07:34:23 PM 40.8689 -78.9742 281° West 428 493 34,000  Level Cleveland Center
Thu 07:35:23 PM 40.8897 -79.1247 280° West 428 493 34,000  Level Cleveland Center
Thu 07:36:23 PM 40.9081 -79.2753 279° West 428 493 34,000  Level Cleveland Center
Thu 07:37:23 PM 40.9286 -79.4453 279° West 433 498 34,000  Level Cleveland Center
Thu 07:38:23 PM 40.9447 -79.6017 278° West 433 498 34,000  Level Cleveland Center
Thu 07:39:23 PM 40.9647 -79.7528 280° West 427 491 34,000  Level Cleveland Center
Thu 07:40:23 PM 40.9825 -79.9092 279° West 427 491 34,000  Level Cleveland Center
Thu 07:41:23 PM 41.0000 -80.0603 279° West 427 491 34,000  Level Cleveland Center
Thu 07:42:23 PM 41.0192 -80.2144 279° West 427 491 34,000  Level Cleveland Center
Thu 07:43:23 PM 41.0364 -80.3739 278° West 427 491 34,000  Level Cleveland Center
Thu 07:44:23 PM 41.0531 -80.5253 278° West 427 491 34,000  Level Cleveland Center
Thu 07:45:23 PM 41.0697 -80.6822 278° West 427 491 34,000  Level Cleveland Center
Thu 07:46:23 PM 41.0864 -80.8339 278° West 427 491 34,000  Level Cleveland Center
Thu 07:47:23 PM 41.1025 -80.9881 278° West 427 491 34,000  Level Cleveland Center
Thu 07:48:23 PM 41.1164 -81.1317 277° West 427 491 34,000  Level Cleveland Center
Thu 07:49:23 PM 41.1322 -81.2861 278° West 427 491 34,000  Level Cleveland Center
Thu 07:50:23 PM 41.1519 -81.4517 279° West 427 491 34,000  Level Cleveland Center
Thu 07:51:23 PM 41.1675 -81.6064 278° West 427 491 34,000  Level Cleveland Center
Thu 07:52:23 PM 41.1825 -81.7611 277° West 427 491 34,000  Level Cleveland Center
Thu 07:53:23 PM 41.1997 -81.9133 279° West 427 491 34,000  Level Cleveland Center
Thu 07:54:23 PM 41.2144 -82.0708 277° West 427 491 34,000  Level Cleveland Center
Thu 07:55:23 PM 41.2247 -82.2314 275° West 439 505 34,000  Level Cleveland Center
Thu 07:56:23 PM 41.2389 -82.3889 277° West 444 511 34,000  Level Cleveland Center
Thu 07:57:23 PM 41.2533 -82.5275 278° West 435 501 34,000  Level Cleveland Center
Thu 07:58:23 PM 41.2672 -82.6828 277° West 427 491 34,000  Level Cleveland Center
Thu 07:59:23 PM 41.2811 -82.8378 277° West 427 491 34,000  Level Cleveland Center
Thu 08:00:23 PM 41.2944 -82.9931 277° West 427 491 34,000  Level Cleveland Center
Thu 08:01:23 PM 41.3078 -83.1483 277° West 427 491 34,000  Level Cleveland Center
Thu 08:02:23 PM 41.3211 -83.3011 277° West 427 491 34,000  Level Cleveland Center
Thu 08:03:23 PM 41.3361 -83.4567 277° West 427 491 34,000  Level Cleveland Center
Thu 08:04:23 PM 41.3486 -83.6119 276° West 427 491 34,000  Level Cleveland Center
Thu 08:05:23 PM 41.3611 -83.7675 276° West 427 491 34,000  Level Cleveland Center
Thu 08:06:23 PM 41.3733 -83.9258 276° West 427 491 34,000  Level Cleveland Center
Thu 08:07:23 PM 41.3853 -84.0789 276° West 427 491 34,000 -673 Level Cleveland Center
Thu 08:09:48 PM 41.4169 -84.4464 277° West 423 487 31,700 -1,159 Descending Chicago Center
Thu 08:10:50 PM 41.4286 -84.5950 276° West 407 468 30,000 -745 Descending Chicago Center
Thu 08:12:05 PM 41.4425 -84.8069 275° West 413 475 30,000  Level Chicago Center
Thu 08:13:07 PM 41.4547 -84.9744 276° West 449 517 30,000 -532 Level Chicago Center
Thu 08:14:09 PM 41.4667 -85.1406 276° West 451 519 28,900 -1,694 Descending Chicago Center
Thu 08:15:11 PM 41.4781 -85.3053 275° West 443 510 26,500 -2,323 Descending Chicago Center
Thu 08:16:13 PM 41.4878 -85.4647 275° West 428 493 24,100 -1,258 Descending Chicago Center
Thu 08:17:15 PM 41.4983 -85.6197 275° West 413 475 23,900 -1,355 Descending Chicago Center
Thu 08:18:17 PM 41.5089 -85.7753 275° West 419 482 21,300 -2,661 Descending Chicago Center
Thu 08:19:19 PM 41.5203 -85.9539 275° West 404 465 18,400 -2,661 Descending Chicago Center
Thu 08:20:21 PM 41.5247 -86.1022 272° West 403 464 15,800 -2,419 Descending Chicago Center
Thu 08:21:23 PM 41.5231 -86.2439 269° West 387 445 13,400 -2,274 Descending Chicago Center
Thu 08:22:25 PM 41.5233 -86.3800 270° West 371 427 11,100 -1,403 Descending Chicago Center
Thu 08:23:27 PM 41.5214 -86.5108 269° West 356 410 10,500 -528 Descending Chicago Center
Thu 08:24:30 PM 41.5203 -86.6375 269° West 345 397 10,000 -240 Descending Chicago Center
Thu 08:25:32 PM 41.5194 -86.7661 270° West 341 392 10,000 -290 Level Chicago Center
Thu 08:26:34 PM 41.5192 -86.9061 270° West 315 362 9,400 -1,016 Descending Chicago Center
Thu 08:27:36 PM 41.5175 -87.0131 269° West 294 338 7,900 -1,452 Descending Chicago Center
Thu 08:28:38 PM 41.5156 -87.1200 269° West 292 336 6,400 -1,415 Descending Chicago Center
Thu 08:29:22 PM 41.5167 -87.2167 271° West 284 327 5,400 -1,385 Descending Chicago TRACON
Thu 08:30:22 PM 41.5167 -87.3167 270° West 280 322 4,000 -700 Descending Chicago TRACON
Thu 08:31:22 PM 41.5167 -87.4167 270° West 277 319 4,000  Level Chicago TRACON
Thu 08:31:44 PM 41.5158 -87.4511 268° West 279 321 4,000  Level Chicago Center
Thu 08:32:46 PM 41.5317 -87.5533 282° West 281 323 4,000  Level Chicago Center
Thu 08:33:48 PM 41.5475 -87.6539 282° West 281 323 4,000 -194 Level Chicago Center
Thu 08:34:50 PM 41.5608 -87.7506 280° West 276 318 3,600 -484 Descending Chicago Center
Thu 08:35:52 PM 41.5728 -87.8506 279° West 248 285 3,000 -532 Descending Chicago Center
Thu 08:36:54 PM 41.5978 -87.9192 296° West 229 264 2,500 -240 Descending Chicago Center
Thu 08:37:57 PM 41.6375 -87.9158 North 177 204 2,500  Level Chicago Center
Thu 08:38:59 PM 41.6725 -87.8964 23° Northeast 150 173 2,500  Level Chicago Center
Thu 08:40:01 PM 41.6986 -87.8619 45° Northeast 138 159 2,500  Level Chicago Center
Thu 08:40:23 PM 41.7167 -87.8500 26° Northeast 130 150 2,500 -439 Level Chicago TRACON
Thu 08:41:23 PM 41.7333 -87.8167 56° Northeast 120 138 1,900 -549 Descending Chicago TRACON
Thu 08:43:07 PM 41.7744 -87.7664 42° Northeast 123 142 1,000 -519 Descending Chicago Center

Login

Don't have an account? Register now (free) for customized features, flight alerts, and more!